sensor_id;sensor_type;location;lat;lon;timestamp;P1;durP1;ratioP1;P2;durP2;ratioP2
40204;SDS011;26963;42.666;23.366;2023-05-07T00:01:35;8.95;;;6.75;;
40204;SDS011;26963;42.666;23.366;2023-05-07T00:04:00;12.23;;;6.57;;
40204;SDS011;26963;42.666;23.366;2023-05-07T00:06:26;8.50;;;6.53;;
40204;SDS011;26963;42.666;23.366;2023-05-07T00:08:54;10.02;;;6.75;;
40204;SDS011;26963;42.666;23.366;2023-05-07T00:11:19;11.18;;;7.45;;
40204;SDS011;26963;42.666;23.366;2023-05-07T00:13:45;12.45;;;7.10;;
40204;SDS011;26963;42.666;23.366;2023-05-07T00:16:11;10.75;;;7.55;;
40204;SDS011;26963;42.666;23.366;2023-05-07T00:18:37;11.93;;;7.43;;
40204;SDS011;26963;42.666;23.366;2023-05-07T00:21:03;7.78;;;6.63;;
40204;SDS011;26963;42.666;23.366;2023-05-07T00:23:28;9.32;;;6.43;;
40204;SDS011;26963;42.666;23.366;2023-05-07T00:25:54;8.77;;;7.47;;
40204;SDS011;26963;42.666;23.366;2023-05-07T00:28:19;14.13;;;9.52;;
40204;SDS011;26963;42.666;23.366;2023-05-07T00:30:45;14.00;;;8.15;;
40204;SDS011;26963;42.666;23.366;2023-05-07T00:33:11;10.63;;;7.88;;
40204;SDS011;26963;42.666;23.366;2023-05-07T00:35:36;10.20;;;6.80;;
40204;SDS011;26963;42.666;23.366;2023-05-07T00:38:02;13.95;;;8.30;;
40204;SDS011;26963;42.666;23.366;2023-05-07T00:40:30;11.38;;;8.02;;
40204;SDS011;26963;42.666;23.366;2023-05-07T00:42:55;11.70;;;7.57;;
40204;SDS011;26963;42.666;23.366;2023-05-07T00:45:25;13.82;;;8.40;;
40204;SDS011;26963;42.666;23.366;2023-05-07T00:47:53;12.80;;;8.32;;
40204;SDS011;26963;42.666;23.366;2023-05-07T00:50:20;9.45;;;7.30;;
40204;SDS011;26963;42.666;23.366;2023-05-07T00:52:46;15.30;;;8.10;;
40204;SDS011;26963;42.666;23.366;2023-05-07T00:55:11;10.43;;;7.63;;
40204;SDS011;26963;42.666;23.366;2023-05-07T00:57:40;10.70;;;7.78;;
40204;SDS011;26963;42.666;23.366;2023-05-07T01:00:08;12.60;;;7.82;;
40204;SDS011;26963;42.666;23.366;2023-05-07T01:02:35;12.20;;;7.15;;
40204;SDS011;26963;42.666;23.366;2023-05-07T01:05:01;9.50;;;7.35;;
40204;SDS011;26963;42.666;23.366;2023-05-07T01:07:31;8.82;;;6.22;;
40204;SDS011;26963;42.666;23.366;2023-05-07T01:10:00;8.57;;;5.70;;
40204;SDS011;26963;42.666;23.366;2023-05-07T01:12:28;8.73;;;5.63;;
40204;SDS011;26963;42.666;23.366;2023-05-07T01:14:54;7.43;;;5.70;;
40204;SDS011;26963;42.666;23.366;2023-05-07T01:17:20;8.10;;;5.25;;
40204;SDS011;26963;42.666;23.366;2023-05-07T01:19:45;5.82;;;4.80;;
40204;SDS011;26963;42.666;23.366;2023-05-07T01:22:12;9.48;;;5.35;;
40204;SDS011;26963;42.666;23.366;2023-05-07T01:24:41;9.57;;;4.57;;
40204;SDS011;26963;42.666;23.366;2023-05-07T01:27:07;6.28;;;4.90;;
40204;SDS011;26963;42.666;23.366;2023-05-07T01:29:33;7.13;;;4.53;;
40204;SDS011;26963;42.666;23.366;2023-05-07T01:31:59;6.40;;;4.30;;
40204;SDS011;26963;42.666;23.366;2023-05-07T01:34:27;7.10;;;4.57;;
40204;SDS011;26963;42.666;23.366;2023-05-07T01:36:54;9.05;;;4.60;;
40204;SDS011;26963;42.666;23.366;2023-05-07T01:39:24;6.15;;;5.07;;
40204;SDS011;26963;42.666;23.366;2023-05-07T01:41:51;7.43;;;4.90;;
40204;SDS011;26963;42.666;23.366;2023-05-07T01:44:16;6.18;;;4.82;;
40204;SDS011;26963;42.666;23.366;2023-05-07T01:46:43;9.07;;;5.43;;
40204;SDS011;26963;42.666;23.366;2023-05-07T01:49:09;8.50;;;5.45;;
40204;SDS011;26963;42.666;23.366;2023-05-07T01:51:35;11.73;;;5.30;;
40204;SDS011;26963;42.666;23.366;2023-05-07T01:54:01;9.80;;;5.65;;
40204;SDS011;26963;42.666;23.366;2023-05-07T01:56:30;7.35;;;5.55;;
40204;SDS011;26963;42.666;23.366;2023-05-07T01:58:55;7.93;;;5.50;;
40204;SDS011;26963;42.666;23.366;2023-05-07T02:01:21;8.38;;;5.90;;
40204;SDS011;26963;42.666;23.366;2023-05-07T02:03:46;8.95;;;6.05;;
40204;SDS011;26963;42.666;23.366;2023-05-07T02:06:12;7.88;;;6.20;;
40204;SDS011;26963;42.666;23.366;2023-05-07T02:08:37;9.73;;;7.20;;
40204;SDS011;26963;42.666;23.366;2023-05-07T02:11:03;8.40;;;6.32;;
40204;SDS011;26963;42.666;23.366;2023-05-07T02:13:29;8.38;;;6.28;;
40204;SDS011;26963;42.666;23.366;2023-05-07T02:15:59;8.73;;;6.93;;
40204;SDS011;26963;42.666;23.366;2023-05-07T02:18:24;7.00;;;6.30;;
40204;SDS011;26963;42.666;23.366;2023-05-07T02:20:50;7.88;;;6.55;;
40204;SDS011;26963;42.666;23.366;2023-05-07T02:23:15;9.25;;;7.47;;
40204;SDS011;26963;42.666;23.366;2023-05-07T02:25:41;10.73;;;7.07;;
40204;SDS011;26963;42.666;23.366;2023-05-07T02:28:06;8.15;;;7.00;;
40204;SDS011;26963;42.666;23.366;2023-05-07T02:30:32;9.05;;;7.43;;
40204;SDS011;26963;42.666;23.366;2023-05-07T02:32:58;9.45;;;7.32;;
40204;SDS011;26963;42.666;23.366;2023-05-07T02:35:24;9.38;;;7.15;;
40204;SDS011;26963;42.666;23.366;2023-05-07T02:37:50;9.15;;;8.00;;
40204;SDS011;26963;42.666;23.366;2023-05-07T02:40:15;10.02;;;7.57;;
40204;SDS011;26963;42.666;23.366;2023-05-07T02:42:41;9.73;;;8.25;;
40204;SDS011;26963;42.666;23.366;2023-05-07T02:45:07;11.10;;;7.50;;
40204;SDS011;26963;42.666;23.366;2023-05-07T02:47:32;9.10;;;7.68;;
40204;SDS011;26963;42.666;23.366;2023-05-07T02:49:58;10.70;;;8.02;;
40204;SDS011;26963;42.666;23.366;2023-05-07T02:52:24;8.52;;;7.63;;
40204;SDS011;26963;42.666;23.366;2023-05-07T02:54:49;10.30;;;8.85;;
40204;SDS011;26963;42.666;23.366;2023-05-07T02:57:15;11.57;;;8.30;;
40204;SDS011;26963;42.666;23.366;2023-05-07T02:59:41;8.65;;;7.75;;
40204;SDS011;26963;42.666;23.366;2023-05-07T03:02:07;13.15;;;9.45;;
40204;SDS011;26963;42.666;23.366;2023-05-07T03:04:32;10.20;;;8.13;;
40204;SDS011;26963;42.666;23.366;2023-05-07T03:06:58;10.63;;;8.43;;
40204;SDS011;26963;42.666;23.366;2023-05-07T03:09:23;9.45;;;8.45;;
40204;SDS011;26963;42.666;23.366;2023-05-07T03:11:49;14.38;;;8.85;;
40204;SDS011;26963;42.666;23.366;2023-05-07T03:14:15;10.35;;;8.57;;
40204;SDS011;26963;42.666;23.366;2023-05-07T03:16:40;12.00;;;8.52;;
40204;SDS011;26963;42.666;23.366;2023-05-07T03:19:06;13.43;;;8.20;;
40204;SDS011;26963;42.666;23.366;2023-05-07T03:21:31;9.77;;;8.40;;
40204;SDS011;26963;42.666;23.366;2023-05-07T03:23:59;10.07;;;8.52;;
40204;SDS011;26963;42.666;23.366;2023-05-07T03:26:24;10.02;;;8.95;;
40204;SDS011;26963;42.666;23.366;2023-05-07T03:28:50;10.93;;;8.90;;
40204;SDS011;26963;42.666;23.366;2023-05-07T03:31:16;10.90;;;8.70;;
40204;SDS011;26963;42.666;23.366;2023-05-07T03:34:16;11.90;;;9.90;;
40204;SDS011;26963;42.666;23.366;2023-05-07T03:36:34;11.27;;;8.83;;
40204;SDS011;26963;42.666;23.366;2023-05-07T03:39:00;11.45;;;9.95;;
40204;SDS011;26963;42.666;23.366;2023-05-07T03:41:25;12.15;;;10.88;;
40204;SDS011;26963;42.666;23.366;2023-05-07T03:43:51;11.65;;;10.43;;
40204;SDS011;26963;42.666;23.366;2023-05-07T03:46:16;12.05;;;10.63;;
40204;SDS011;26963;42.666;23.366;2023-05-07T03:48:42;12.60;;;11.15;;
40204;SDS011;26963;42.666;23.366;2023-05-07T03:51:07;12.80;;;11.40;;
40204;SDS011;26963;42.666;23.366;2023-05-07T03:53:33;13.23;;;11.45;;
40204;SDS011;26963;42.666;23.366;2023-05-07T03:55:58;13.40;;;12.00;;
40204;SDS011;26963;42.666;23.366;2023-05-07T03:58:24;14.80;;;11.73;;
40204;SDS011;26963;42.666;23.366;2023-05-07T04:00:50;13.70;;;12.25;;
40204;SDS011;26963;42.666;23.366;2023-05-07T04:03:15;13.40;;;11.70;;
40204;SDS011;26963;42.666;23.366;2023-05-07T04:05:41;14.88;;;12.25;;
40204;SDS011;26963;42.666;23.366;2023-05-07T04:08:06;13.63;;;12.05;;
40204;SDS011;26963;42.666;23.366;2023-05-07T04:10:32;13.80;;;12.35;;
40204;SDS011;26963;42.666;23.366;2023-05-07T04:12:57;16.50;;;12.07;;
40204;SDS011;26963;42.666;23.366;2023-05-07T04:15:23;13.90;;;11.50;;
40204;SDS011;26963;42.666;23.366;2023-05-07T04:17:49;14.52;;;10.90;;
40204;SDS011;26963;42.666;23.366;2023-05-07T04:20:15;11.77;;;10.23;;
40204;SDS011;26963;42.666;23.366;2023-05-07T04:22:42;11.80;;;10.60;;
40204;SDS011;26963;42.666;23.366;2023-05-07T04:25:08;14.15;;;10.80;;
40204;SDS011;26963;42.666;23.366;2023-05-07T04:27:35;11.18;;;10.07;;
40204;SDS011;26963;42.666;23.366;2023-05-07T04:30:01;13.93;;;10.38;;
40204;SDS011;26963;42.666;23.366;2023-05-07T04:32:30;13.30;;;10.98;;
40204;SDS011;26963;42.666;23.366;2023-05-07T04:35:00;13.00;;;10.55;;
40204;SDS011;26963;42.666;23.366;2023-05-07T04:37:25;11.88;;;10.60;;
40204;SDS011;26963;42.666;23.366;2023-05-07T04:39:51;12.95;;;10.35;;
40204;SDS011;26963;42.666;23.366;2023-05-07T04:42:17;14.00;;;10.45;;
40204;SDS011;26963;42.666;23.366;2023-05-07T04:44:44;14.82;;;11.63;;
40204;SDS011;26963;42.666;23.366;2023-05-07T04:47:10;15.40;;;10.90;;
40204;SDS011;26963;42.666;23.366;2023-05-07T04:49:36;13.48;;;10.65;;
40204;SDS011;26963;42.666;23.366;2023-05-07T04:52:03;14.15;;;11.35;;
40204;SDS011;26963;42.666;23.366;2023-05-07T04:54:28;15.30;;;10.75;;
40204;SDS011;26963;42.666;23.366;2023-05-07T04:56:54;14.00;;;11.23;;
40204;SDS011;26963;42.666;23.366;2023-05-07T04:59:20;14.48;;;10.50;;
40204;SDS011;26963;42.666;23.366;2023-05-07T05:01:46;12.27;;;10.05;;
40204;SDS011;26963;42.666;23.366;2023-05-07T05:04:11;14.70;;;10.38;;
40204;SDS011;26963;42.666;23.366;2023-05-07T05:06:38;13.77;;;11.38;;
40204;SDS011;26963;42.666;23.366;2023-05-07T05:09:03;13.55;;;12.02;;
40204;SDS011;26963;42.666;23.366;2023-05-07T05:11:30;15.45;;;12.02;;
40204;SDS011;26963;42.666;23.366;2023-05-07T05:13:56;14.38;;;11.15;;
40204;SDS011;26963;42.666;23.366;2023-05-07T05:16:22;18.88;;;13.40;;
40204;SDS011;26963;42.666;23.366;2023-05-07T05:18:47;16.80;;;11.90;;
40204;SDS011;26963;42.666;23.366;2023-05-07T05:21:13;13.35;;;11.55;;
40204;SDS011;26963;42.666;23.366;2023-05-07T05:23:39;15.45;;;11.73;;
40204;SDS011;26963;42.666;23.366;2023-05-07T05:26:04;13.85;;;11.88;;
40204;SDS011;26963;42.666;23.366;2023-05-07T05:28:30;15.30;;;11.68;;
40204;SDS011;26963;42.666;23.366;2023-05-07T05:30:55;15.35;;;12.95;;
40204;SDS011;26963;42.666;23.366;2023-05-07T05:33:21;14.02;;;12.52;;
40204;SDS011;26963;42.666;23.366;2023-05-07T05:35:47;15.55;;;12.27;;
40204;SDS011;26963;42.666;23.366;2023-05-07T05:38:13;14.80;;;11.70;;
40204;SDS011;26963;42.666;23.366;2023-05-07T05:40:38;13.63;;;11.95;;
40204;SDS011;26963;42.666;23.366;2023-05-07T05:43:04;15.02;;;11.40;;
40204;SDS011;26963;42.666;23.366;2023-05-07T05:45:30;15.35;;;11.65;;
40204;SDS011;26963;42.666;23.366;2023-05-07T05:47:56;16.55;;;11.55;;
40204;SDS011;26963;42.666;23.366;2023-05-07T05:50:23;16.35;;;13.15;;
40204;SDS011;26963;42.666;23.366;2023-05-07T05:52:48;14.63;;;12.73;;
40204;SDS011;26963;42.666;23.366;2023-05-07T05:55:14;15.88;;;11.95;;
40204;SDS011;26963;42.666;23.366;2023-05-07T05:57:39;12.85;;;11.45;;
40204;SDS011;26963;42.666;23.366;2023-05-07T06:00:06;16.15;;;12.75;;
40204;SDS011;26963;42.666;23.366;2023-05-07T06:02:32;15.32;;;12.95;;
40204;SDS011;26963;42.666;23.366;2023-05-07T06:04:58;15.13;;;12.90;;
40204;SDS011;26963;42.666;23.366;2023-05-07T06:07:24;18.08;;;14.82;;
40204;SDS011;26963;42.666;23.366;2023-05-07T06:09:50;14.55;;;11.57;;
40204;SDS011;26963;42.666;23.366;2023-05-07T06:12:15;14.80;;;11.10;;
40204;SDS011;26963;42.666;23.366;2023-05-07T06:14:42;20.80;;;15.75;;
40204;SDS011;26963;42.666;23.366;2023-05-07T06:17:08;14.45;;;12.30;;
40204;SDS011;26963;42.666;23.366;2023-05-07T06:19:34;14.52;;;12.60;;
40204;SDS011;26963;42.666;23.366;2023-05-07T06:22:00;16.35;;;12.35;;
40204;SDS011;26963;42.666;23.366;2023-05-07T06:24:26;13.27;;;11.88;;
40204;SDS011;26963;42.666;23.366;2023-05-07T06:26:55;16.58;;;11.88;;
40204;SDS011;26963;42.666;23.366;2023-05-07T06:29:20;13.70;;;11.23;;
40204;SDS011;26963;42.666;23.366;2023-05-07T06:31:46;12.60;;;10.25;;
40204;SDS011;26963;42.666;23.366;2023-05-07T06:34:12;13.60;;;10.88;;
40204;SDS011;26963;42.666;23.366;2023-05-07T06:36:40;9.98;;;8.98;;
40204;SDS011;26963;42.666;23.366;2023-05-07T06:39:06;12.52;;;9.07;;
40204;SDS011;26963;42.666;23.366;2023-05-07T06:41:32;9.75;;;8.75;;
40204;SDS011;26963;42.666;23.366;2023-05-07T06:44:00;11.38;;;9.25;;
40204;SDS011;26963;42.666;23.366;2023-05-07T06:46:27;11.32;;;8.38;;
40204;SDS011;26963;42.666;23.366;2023-05-07T06:48:56;9.70;;;8.05;;
40204;SDS011;26963;42.666;23.366;2023-05-07T06:51:22;9.32;;;7.63;;
40204;SDS011;26963;42.666;23.366;2023-05-07T06:53:47;13.60;;;8.52;;
40204;SDS011;26963;42.666;23.366;2023-05-07T06:56:13;9.60;;;7.57;;
40204;SDS011;26963;42.666;23.366;2023-05-07T06:58:39;10.15;;;7.47;;
40204;SDS011;26963;42.666;23.366;2023-05-07T07:01:04;16.40;;;7.03;;
40204;SDS011;26963;42.666;23.366;2023-05-07T07:03:30;10.43;;;7.22;;
40204;SDS011;26963;42.666;23.366;2023-05-07T07:05:55;10.52;;;6.85;;
40204;SDS011;26963;42.666;23.366;2023-05-07T07:08:21;8.85;;;6.32;;
40204;SDS011;26963;42.666;23.366;2023-05-07T07:10:47;11.20;;;6.50;;
40204;SDS011;26963;42.666;23.366;2023-05-07T07:13:13;9.75;;;6.70;;
40204;SDS011;26963;42.666;23.366;2023-05-07T07:15:39;9.23;;;6.70;;
40204;SDS011;26963;42.666;23.366;2023-05-07T07:18:05;11.05;;;7.07;;
40204;SDS011;26963;42.666;23.366;2023-05-07T07:20:31;9.15;;;6.88;;
40204;SDS011;26963;42.666;23.366;2023-05-07T07:22:56;13.27;;;7.88;;
40204;SDS011;26963;42.666;23.366;2023-05-07T07:25:25;9.73;;;7.38;;
40204;SDS011;26963;42.666;23.366;2023-05-07T07:27:51;8.82;;;6.32;;
40204;SDS011;26963;42.666;23.366;2023-05-07T07:30:16;9.80;;;7.05;;
40204;SDS011;26963;42.666;23.366;2023-05-07T07:32:41;11.43;;;7.63;;
40204;SDS011;26963;42.666;23.366;2023-05-07T07:35:08;12.32;;;8.38;;
40204;SDS011;26963;42.666;23.366;2023-05-07T07:37:34;9.20;;;8.30;;
40204;SDS011;26963;42.666;23.366;2023-05-07T07:39:59;10.20;;;8.25;;
40204;SDS011;26963;42.666;23.366;2023-05-07T07:42:25;10.27;;;8.57;;
40204;SDS011;26963;42.666;23.366;2023-05-07T07:44:51;10.88;;;8.18;;
40204;SDS011;26963;42.666;23.366;2023-05-07T07:47:17;10.90;;;7.90;;
40204;SDS011;26963;42.666;23.366;2023-05-07T07:49:42;8.25;;;7.40;;
40204;SDS011;26963;42.666;23.366;2023-05-07T07:52:08;11.63;;;8.45;;
40204;SDS011;26963;42.666;23.366;2023-05-07T07:54:34;13.27;;;9.13;;
40204;SDS011;26963;42.666;23.366;2023-05-07T07:56:59;12.27;;;9.25;;
40204;SDS011;26963;42.666;23.366;2023-05-07T07:59:26;13.25;;;9.20;;
40204;SDS011;26963;42.666;23.366;2023-05-07T08:01:55;13.63;;;8.82;;
40204;SDS011;26963;42.666;23.366;2023-05-07T08:04:21;11.07;;;7.50;;
40204;SDS011;26963;42.666;23.366;2023-05-07T08:06:47;10.85;;;9.68;;
40204;SDS011;26963;42.666;23.366;2023-05-07T08:09:13;12.90;;;9.05;;
40204;SDS011;26963;42.666;23.366;2023-05-07T08:11:39;10.98;;;7.80;;
40204;SDS011;26963;42.666;23.366;2023-05-07T08:14:04;9.90;;;8.50;;
40204;SDS011;26963;42.666;23.366;2023-05-07T08:16:30;13.02;;;8.98;;
40204;SDS011;26963;42.666;23.366;2023-05-07T08:18:56;9.88;;;8.38;;
40204;SDS011;26963;42.666;23.366;2023-05-07T08:21:22;11.88;;;8.85;;
40204;SDS011;26963;42.666;23.366;2023-05-07T08:23:47;10.43;;;8.57;;
40204;SDS011;26963;42.666;23.366;2023-05-07T08:26:13;12.20;;;9.20;;
40204;SDS011;26963;42.666;23.366;2023-05-07T08:28:38;8.90;;;7.63;;
40204;SDS011;26963;42.666;23.366;2023-05-07T08:31:05;11.25;;;9.25;;
40204;SDS011;26963;42.666;23.366;2023-05-07T08:33:31;10.32;;;7.90;;
40204;SDS011;26963;42.666;23.366;2023-05-07T08:35:56;9.70;;;7.88;;
40204;SDS011;26963;42.666;23.366;2023-05-07T08:38:25;10.25;;;7.68;;
40204;SDS011;26963;42.666;23.366;2023-05-07T08:40:50;10.98;;;8.52;;
40204;SDS011;26963;42.666;23.366;2023-05-07T08:43:16;9.32;;;7.70;;
40204;SDS011;26963;42.666;23.366;2023-05-07T08:45:43;10.07;;;7.28;;
40204;SDS011;26963;42.666;23.366;2023-05-07T08:48:17;11.50;;;6.57;;
40204;SDS011;26963;42.666;23.366;2023-05-07T08:50:42;10.60;;;6.43;;
40204;SDS011;26963;42.666;23.366;2023-05-07T08:53:08;9.73;;;6.43;;
40204;SDS011;26963;42.666;23.366;2023-05-07T08:55:34;9.77;;;6.20;;
40204;SDS011;26963;42.666;23.366;2023-05-07T08:57:59;9.05;;;6.25;;
40204;SDS011;26963;42.666;23.366;2023-05-07T09:00:26;9.35;;;5.85;;
40204;SDS011;26963;42.666;23.366;2023-05-07T09:02:52;8.45;;;5.97;;
40204;SDS011;26963;42.666;23.366;2023-05-07T09:05:18;6.80;;;5.40;;
40204;SDS011;26963;42.666;23.366;2023-05-07T09:07:45;6.78;;;4.78;;
40204;SDS011;26963;42.666;23.366;2023-05-07T09:10:11;9.73;;;5.50;;
40204;SDS011;26963;42.666;23.366;2023-05-07T09:12:37;8.48;;;5.25;;
40204;SDS011;26963;42.666;23.366;2023-05-07T09:15:04;6.53;;;5.10;;
40204;SDS011;26963;42.666;23.366;2023-05-07T09:17:30;9.80;;;6.82;;
40204;SDS011;26963;42.666;23.366;2023-05-07T09:19:56;7.65;;;5.90;;
40204;SDS011;26963;42.666;23.366;2023-05-07T09:22:22;7.30;;;4.53;;
40204;SDS011;26963;42.666;23.366;2023-05-07T09:24:48;5.60;;;4.75;;
40204;SDS011;26963;42.666;23.366;2023-05-07T09:27:14;8.57;;;4.97;;
40204;SDS011;26963;42.666;23.366;2023-05-07T09:29:40;7.03;;;5.20;;
40204;SDS011;26963;42.666;23.366;2023-05-07T09:32:07;7.38;;;5.30;;
40204;SDS011;26963;42.666;23.366;2023-05-07T09:34:34;6.45;;;5.10;;
40204;SDS011;26963;42.666;23.366;2023-05-07T09:37:05;7.88;;;5.20;;
40204;SDS011;26963;42.666;23.366;2023-05-07T09:39:42;8.18;;;5.22;;
40204;SDS011;26963;42.666;23.366;2023-05-07T09:42:09;15.10;;;13.60;;
40204;SDS011;26963;42.666;23.366;2023-05-07T09:44:36;8.50;;;6.78;;
40204;SDS011;26963;42.666;23.366;2023-05-07T09:47:04;8.63;;;5.50;;
40204;SDS011;26963;42.666;23.366;2023-05-07T09:49:30;7.28;;;4.53;;
40204;SDS011;26963;42.666;23.366;2023-05-07T09:52:00;11.30;;;6.68;;
40204;SDS011;26963;42.666;23.366;2023-05-07T09:54:26;10.05;;;6.05;;
40204;SDS011;26963;42.666;23.366;2023-05-07T09:56:56;7.82;;;4.82;;
40204;SDS011;26963;42.666;23.366;2023-05-07T09:59:33;5.72;;;4.85;;
40204;SDS011;26963;42.666;23.366;2023-05-07T10:02:00;5.53;;;4.43;;
40204;SDS011;26963;42.666;23.366;2023-05-07T10:04:26;6.85;;;3.97;;
40204;SDS011;26963;42.666;23.366;2023-05-07T10:06:55;7.03;;;4.25;;
40204;SDS011;26963;42.666;23.366;2023-05-07T10:09:20;5.03;;;3.95;;
40204;SDS011;26963;42.666;23.366;2023-05-07T10:11:47;5.55;;;3.35;;
40204;SDS011;26963;42.666;23.366;2023-05-07T10:14:14;8.18;;;3.50;;
40204;SDS011;26963;42.666;23.366;2023-05-07T10:16:40;7.53;;;3.78;;
40204;SDS011;26963;42.666;23.366;2023-05-07T10:19:07;5.47;;;3.70;;
40204;SDS011;26963;42.666;23.366;2023-05-07T10:21:36;6.50;;;4.00;;
40204;SDS011;26963;42.666;23.366;2023-05-07T10:26:39;7.85;;;4.40;;
40204;SDS011;26963;42.666;23.366;2023-05-07T10:31:55;7.57;;;4.55;;
40204;SDS011;26963;42.666;23.366;2023-05-07T10:34:49;5.78;;;3.65;;
40204;SDS011;26963;42.666;23.366;2023-05-07T10:37:18;6.70;;;3.90;;
40204;SDS011;26963;42.666;23.366;2023-05-07T10:39:45;6.75;;;3.97;;
40204;SDS011;26963;42.666;23.366;2023-05-07T10:42:11;7.72;;;4.78;;
40204;SDS011;26963;42.666;23.366;2023-05-07T10:44:37;6.78;;;4.57;;
40204;SDS011;26963;42.666;23.366;2023-05-07T10:47:07;6.88;;;4.40;;
40204;SDS011;26963;42.666;23.366;2023-05-07T10:54:39;6.97;;;4.20;;
40204;SDS011;26963;42.666;23.366;2023-05-07T10:59:56;7.65;;;5.45;;
40204;SDS011;26963;42.666;23.366;2023-05-07T11:02:21;7.22;;;5.40;;
40204;SDS011;26963;42.666;23.366;2023-05-07T11:07:44;10.75;;;4.25;;
40204;SDS011;26963;42.666;23.366;2023-05-07T11:13:16;15.80;;;14.07;;
40204;SDS011;26963;42.666;23.366;2023-05-07T11:15:45;6.70;;;5.55;;
40204;SDS011;26963;42.666;23.366;2023-05-07T11:18:13;4.78;;;4.05;;
40204;SDS011;26963;42.666;23.366;2023-05-07T11:20:50;6.07;;;3.92;;
40204;SDS011;26963;42.666;23.366;2023-05-07T11:26:08;11.70;;;9.68;;
40204;SDS011;26963;42.666;23.366;2023-05-07T11:28:36;7.72;;;4.72;;
40204;SDS011;26963;42.666;23.366;2023-05-07T11:31:03;7.63;;;4.50;;
40204;SDS011;26963;42.666;23.366;2023-05-07T11:33:30;8.30;;;3.72;;
40204;SDS011;26963;42.666;23.366;2023-05-07T11:35:56;4.68;;;3.30;;
40204;SDS011;26963;42.666;23.366;2023-05-07T11:38:25;8.35;;;4.38;;
40204;SDS011;26963;42.666;23.366;2023-05-07T11:43:17;8.77;;;4.80;;
40204;SDS011;26963;42.666;23.366;2023-05-07T11:45:45;5.40;;;3.95;;
40204;SDS011;26963;42.666;23.366;2023-05-07T11:48:15;7.80;;;5.45;;
40204;SDS011;26963;42.666;23.366;2023-05-07T11:53:40;9.57;;;6.35;;
40204;SDS011;26963;42.666;23.366;2023-05-07T11:56:11;5.60;;;4.30;;
40204;SDS011;26963;42.666;23.366;2023-05-07T11:58:39;8.70;;;6.75;;
40204;SDS011;26963;42.666;23.366;2023-05-07T12:01:07;11.85;;;5.60;;
40204;SDS011;26963;42.666;23.366;2023-05-07T12:03:34;6.55;;;4.20;;
40204;SDS011;26963;42.666;23.366;2023-05-07T12:06:06;6.10;;;4.28;;
40204;SDS011;26963;42.666;23.366;2023-05-07T12:08:32;7.60;;;4.50;;
40204;SDS011;26963;42.666;23.366;2023-05-07T12:10:57;5.57;;;4.18;;
40204;SDS011;26963;42.666;23.366;2023-05-07T12:13:24;5.78;;;4.43;;
40204;SDS011;26963;42.666;23.366;2023-05-07T12:15:51;9.40;;;5.30;;
40204;SDS011;26963;42.666;23.366;2023-05-07T12:18:17;7.35;;;4.93;;
40204;SDS011;26963;42.666;23.366;2023-05-07T12:20:44;9.18;;;7.60;;
40204;SDS011;26963;42.666;23.366;2023-05-07T12:23:10;9.90;;;4.78;;
40204;SDS011;26963;42.666;23.366;2023-05-07T12:25:37;5.25;;;4.28;;
40204;SDS011;26963;42.666;23.366;2023-05-07T12:28:04;6.65;;;5.43;;
40204;SDS011;26963;42.666;23.366;2023-05-07T12:30:39;10.48;;;4.95;;
40204;SDS011;26963;42.666;23.366;2023-05-07T12:33:05;6.72;;;4.45;;
40204;SDS011;26963;42.666;23.366;2023-05-07T12:35:36;4.13;;;3.67;;
40204;SDS011;26963;42.666;23.366;2023-05-07T12:38:07;6.32;;;3.97;;
40204;SDS011;26963;42.666;23.366;2023-05-07T12:43:06;14.18;;;12.68;;
40204;SDS011;26963;42.666;23.366;2023-05-07T12:45:36;13.75;;;12.35;;
40204;SDS011;26963;42.666;23.366;2023-05-07T12:48:04;8.23;;;5.03;;
40204;SDS011;26963;42.666;23.366;2023-05-07T12:50:33;6.05;;;3.40;;
40204;SDS011;26963;42.666;23.366;2023-05-07T12:52:59;6.57;;;3.03;;
40204;SDS011;26963;42.666;23.366;2023-05-07T12:55:25;4.97;;;3.22;;
40204;SDS011;26963;42.666;23.366;2023-05-07T12:57:51;4.95;;;3.60;;
40204;SDS011;26963;42.666;23.366;2023-05-07T13:00:18;5.22;;;3.22;;
40204;SDS011;26963;42.666;23.366;2023-05-07T13:03:03;5.75;;;3.17;;
40204;SDS011;26963;42.666;23.366;2023-05-07T13:05:31;5.35;;;3.00;;
40204;SDS011;26963;42.666;23.366;2023-05-07T13:08:00;7.05;;;2.72;;
40204;SDS011;26963;42.666;23.366;2023-05-07T13:10:26;5.55;;;3.03;;
40204;SDS011;26963;42.666;23.366;2023-05-07T13:12:55;4.82;;;3.00;;
40204;SDS011;26963;42.666;23.366;2023-05-07T13:15:21;5.57;;;3.40;;
40204;SDS011;26963;42.666;23.366;2023-05-07T13:17:46;4.10;;;3.20;;
40204;SDS011;26963;42.666;23.366;2023-05-07T13:20:12;6.15;;;3.58;;
40204;SDS011;26963;42.666;23.366;2023-05-07T13:22:38;4.25;;;3.15;;
40204;SDS011;26963;42.666;23.366;2023-05-07T13:25:04;4.25;;;3.00;;
40204;SDS011;26963;42.666;23.366;2023-05-07T13:27:30;3.17;;;2.50;;
40204;SDS011;26963;42.666;23.366;2023-05-07T13:29:56;3.40;;;2.50;;
40204;SDS011;26963;42.666;23.366;2023-05-07T13:32:25;3.75;;;2.72;;
40204;SDS011;26963;42.666;23.366;2023-05-07T13:34:51;4.40;;;2.70;;
40204;SDS011;26963;42.666;23.366;2023-05-07T13:37:16;4.80;;;3.00;;
40204;SDS011;26963;42.666;23.366;2023-05-07T13:39:42;7.45;;;3.03;;
40204;SDS011;26963;42.666;23.366;2023-05-07T13:42:07;4.93;;;3.08;;
40204;SDS011;26963;42.666;23.366;2023-05-07T13:44:33;4.85;;;3.15;;
40204;SDS011;26963;42.666;23.366;2023-05-07T13:46:58;4.25;;;3.20;;
40204;SDS011;26963;42.666;23.366;2023-05-07T13:49:24;5.22;;;3.00;;
40204;SDS011;26963;42.666;23.366;2023-05-07T13:51:49;5.00;;;3.00;;
40204;SDS011;26963;42.666;23.366;2023-05-07T13:54:15;6.43;;;3.13;;
40204;SDS011;26963;42.666;23.366;2023-05-07T13:56:41;5.72;;;3.40;;
40204;SDS011;26963;42.666;23.366;2023-05-07T13:59:06;5.50;;;3.97;;
40204;SDS011;26963;42.666;23.366;2023-05-07T14:01:32;10.55;;;3.65;;
40204;SDS011;26963;42.666;23.366;2023-05-07T14:04:00;4.82;;;3.00;;
40204;SDS011;26963;42.666;23.366;2023-05-07T14:06:26;6.70;;;3.50;;
40204;SDS011;26963;42.666;23.366;2023-05-07T14:08:51;28.00;;;24.80;;
40204;SDS011;26963;42.666;23.366;2023-05-07T14:11:17;5.65;;;3.42;;
40204;SDS011;26963;42.666;23.366;2023-05-07T14:13:43;5.18;;;3.30;;
40204;SDS011;26963;42.666;23.366;2023-05-07T14:16:08;4.57;;;2.80;;
40204;SDS011;26963;42.666;23.366;2023-05-07T14:18:34;3.78;;;2.95;;
40204;SDS011;26963;42.666;23.366;2023-05-07T14:21:02;4.78;;;2.78;;
40204;SDS011;26963;42.666;23.366;2023-05-07T14:23:27;4.28;;;3.33;;
40204;SDS011;26963;42.666;23.366;2023-05-07T14:25:53;8.32;;;3.75;;
40204;SDS011;26963;42.666;23.366;2023-05-07T14:28:19;5.38;;;3.13;;
40204;SDS011;26963;42.666;23.366;2023-05-07T14:30:44;5.45;;;3.20;;
40204;SDS011;26963;42.666;23.366;2023-05-07T14:33:10;3.85;;;3.00;;
40204;SDS011;26963;42.666;23.366;2023-05-07T14:35:35;4.15;;;2.92;;
40204;SDS011;26963;42.666;23.366;2023-05-07T14:38:01;4.50;;;3.20;;
40204;SDS011;26963;42.666;23.366;2023-05-07T14:40:27;5.93;;;3.10;;
40204;SDS011;26963;42.666;23.366;2023-05-07T14:42:55;6.13;;;3.33;;
40204;SDS011;26963;42.666;23.366;2023-05-07T14:45:25;3.17;;;2.60;;
40204;SDS011;26963;42.666;23.366;2023-05-07T14:47:50;4.38;;;3.20;;
40204;SDS011;26963;42.666;23.366;2023-05-07T14:50:16;5.40;;;3.10;;
40204;SDS011;26963;42.666;23.366;2023-05-07T14:52:41;5.85;;;2.90;;